VILK/LKO METAR and TAF weather

Enter ICAO airport designator
Station Type Date Time Source
VILK METAR 2021/09/23 19:30 UTC NOAA

VILK 231930Z 09006KT 2500 BR SCT018 SCT025 FEW030CB OVC090 26/25 Q1006 NOSIG


Station Type Date Time Source
VILK Decoded METAR 2021/09/23 19:30 UTC NOAA

Lucknow / Amausi, India (VILK) 26-45N 080-53E 128M
Sep 23, 2021 - 03:30 PM EDT / 2021.09.23 1930 UTC
Wind: from the E (090 degrees) at 7 MPH (6 KT):0
Visibility: 1 mile(s):0
Sky conditions: overcast
Weather: mist; Cumulonimbus clouds observed
Temperature: 78 F (26 C)
Dew Point: 77 F (25 C)
Relative Humidity: 94%
Pressure (altimeter): 29.71 in. Hg (1006 hPa)
ob: VILK 231930Z 09006KT 2500 BR SCT018 SCT025 FEW030CB OVC090 26/25 Q1006 NOSIG
cycle: 19

Station Type Date Time Source
VILK TAF 2021/09/23 18:28 UTC NOAA

TAF VILK 231700Z 2318/2424 07003KT 2500 SCT018 SCT025 OVC090
TEMPO 2320/2324 2000 -TSRA -RA FEW030CB OVC090
BECMG 2403/2405 09005KT 4000 BR HZ SCT018 SCT025 BKN100
BECMG 2405/2407 5000 HZ SCT020 SCT025 BKN100
TEMPO 2408/2412 09010G20KT 2000 -TSRA -RA FEW030CB OVC090
BECMG 2418/2420 VRB02KT 3000 BR SCT020 BKN100

Example: see airport list